sensor_id;sensor_type;location;lat;lon;timestamp;pressure;altitude;pressure_sealevel;temperature
34901;BMP280;21112;51.976;5.660;2024-02-26T00:01:31;98472.09;;;5.06
34901;BMP280;21112;51.976;5.660;2024-02-26T00:03:59;98467.19;;;5.03
34901;BMP280;21112;51.976;5.660;2024-02-26T00:06:27;98476.28;;;5.04
34901;BMP280;21112;51.976;5.660;2024-02-26T00:08:54;98482.09;;;5.05
34901;BMP280;21112;51.976;5.660;2024-02-26T00:11:25;98474.75;;;5.02
34901;BMP280;21112;51.976;5.660;2024-02-26T00:13:52;98471.44;;;5.01
34901;BMP280;21112;51.976;5.660;2024-02-26T00:16:19;98469.81;;;5.00
34901;BMP280;21112;51.976;5.660;2024-02-26T00:18:46;98473.97;;;5.00
34901;BMP280;21112;51.976;5.660;2024-02-26T00:21:13;98473.97;;;5.00
34901;BMP280;21112;51.976;5.660;2024-02-26T00:23:40;98468.19;;;4.99
34901;BMP280;21112;51.976;5.660;2024-02-26T00:26:07;98483.00;;;5.02
34901;BMP280;21112;51.976;5.660;2024-02-26T00:28:37;98486.38;;;5.01
34901;BMP280;21112;51.976;5.660;2024-02-26T00:31:04;98481.44;;;5.00
34901;BMP280;21112;51.976;5.660;2024-02-26T00:33:31;98483.88;;;5.01
34901;BMP280;21112;51.976;5.660;2024-02-26T00:35:58;98483.06;;;5.01
34901;BMP280;21112;51.976;5.660;2024-02-26T00:38:24;98489.72;;;5.00
34901;BMP280;21112;51.976;5.660;2024-02-26T00:40:51;98484.00;;;4.98
34901;BMP280;21112;51.976;5.660;2024-02-26T00:43:18;98484.06;;;4.97
34901;BMP280;21112;51.976;5.660;2024-02-26T00:45:47;98479.81;;;4.99
34901;BMP280;21112;51.976;5.660;2024-02-26T00:48:14;98470.69;;;4.99
34901;BMP280;21112;51.976;5.660;2024-02-26T00:50:40;98475.59;;;5.01
34901;BMP280;21112;51.976;5.660;2024-02-26T00:53:08;98474.75;;;5.02
34901;BMP280;21112;51.976;5.660;2024-02-26T00:55:35;98475.59;;;5.01
34901;BMP280;21112;51.976;5.660;2024-02-26T00:58:02;98482.22;;;5.02
34901;BMP280;21112;51.976;5.660;2024-02-26T01:00:28;98476.38;;;5.03
34901;BMP280;21112;51.976;5.660;2024-02-26T01:02:57;98480.53;;;5.02
34901;BMP280;21112;51.976;5.660;2024-02-26T01:05:25;98476.38;;;5.03
34901;BMP280;21112;51.976;5.660;2024-02-26T01:07:52;98469.78;;;5.02
34901;BMP280;21112;51.976;5.660;2024-02-26T01:10:18;98464.84;;;5.00
34901;BMP280;21112;51.976;5.660;2024-02-26T01:12:45;98472.31;;;5.00
34901;BMP280;21112;51.976;5.660;2024-02-26T01:15:13;98472.34;;;4.99
34901;BMP280;21112;51.976;5.660;2024-02-26T01:17:39;98450.06;;;4.96
34901;BMP280;21112;51.976;5.660;2024-02-26T01:20:09;98450.97;;;4.93
34901;BMP280;21112;51.976;5.660;2024-02-26T01:22:36;98455.13;;;4.93
34901;BMP280;21112;51.976;5.660;2024-02-26T01:25:04;98443.47;;;4.95
34901;BMP280;21112;51.976;5.660;2024-02-26T01:27:31;98452.56;;;4.96
34901;BMP280;21112;51.976;5.660;2024-02-26T01:29:58;98456.66;;;4.97
34901;BMP280;21112;51.976;5.660;2024-02-26T01:32:25;98460.78;;;4.98
34901;BMP280;21112;51.976;5.660;2024-02-26T01:34:52;98464.94;;;4.97
34901;BMP280;21112;51.976;5.660;2024-02-26T01:37:21;98458.28;;;4.98
34901;BMP280;21112;51.976;5.660;2024-02-26T01:39:49;98462.44;;;4.97
34901;BMP280;21112;51.976;5.660;2024-02-26T01:42:15;98474.88;;;4.97
34901;BMP280;21112;51.976;5.660;2024-02-26T01:44:42;98478.06;;;5.01
34901;BMP280;21112;51.976;5.660;2024-02-26T01:47:11;98475.59;;;5.01
34901;BMP280;21112;51.976;5.660;2024-02-26T01:49:39;98484.72;;;5.02
34901;BMP280;21112;51.976;5.660;2024-02-26T01:52:07;98497.72;;;5.08
34901;BMP280;21112;51.976;5.660;2024-02-26T01:54:37;98500.22;;;5.08
34901;BMP280;21112;51.976;5.660;2024-02-26T01:57:05;98496.16;;;5.06
34901;BMP280;21112;51.976;5.660;2024-02-26T01:59:33;98511.81;;;5.09
34901;BMP280;21112;51.976;5.660;2024-02-26T02:02:01;98514.25;;;5.11
34901;BMP280;21112;51.976;5.660;2024-02-26T02:04:29;98510.88;;;5.12
34901;BMP280;21112;51.976;5.660;2024-02-26T02:06:57;98522.53;;;5.11
34901;BMP280;21112;51.976;5.660;2024-02-26T02:09:24;98529.84;;;5.16
34901;BMP280;21112;51.976;5.660;2024-02-26T02:11:53;98544.84;;;5.14
34901;BMP280;21112;51.976;5.660;2024-02-26T02:14:20;98539.91;;;5.13
34901;BMP280;21112;51.976;5.660;2024-02-26T02:16:47;98541.63;;;5.11
34901;BMP280;21112;51.976;5.660;2024-02-26T02:19:13;98538.41;;;5.09
34901;BMP280;21112;51.976;5.660;2024-02-26T02:21:42;98540.88;;;5.09
34901;BMP280;21112;51.976;5.660;2024-02-26T02:24:09;98539.19;;;5.09
34901;BMP280;21112;51.976;5.660;2024-02-26T02:26:36;98545.88;;;5.09
34901;BMP280;21112;51.976;5.660;2024-02-26T02:29:02;98543.44;;;5.07
34901;BMP280;21112;51.976;5.660;2024-02-26T02:31:30;98546.72;;;5.08
34901;BMP280;21112;51.976;5.660;2024-02-26T02:33:57;98549.09;;;5.11
34901;BMP280;21112;51.976;5.660;2024-02-26T02:36:24;98553.25;;;5.10
34901;BMP280;21112;51.976;5.660;2024-02-26T02:38:52;98550.84;;;5.09
34901;BMP280;21112;51.976;5.660;2024-02-26T02:41:19;98556.63;;;5.09
34901;BMP280;21112;51.976;5.660;2024-02-26T02:43:47;98552.47;;;5.10
34901;BMP280;21112;51.976;5.660;2024-02-26T02:46:14;98554.03;;;5.12
34901;BMP280;21112;51.976;5.660;2024-02-26T02:48:41;98556.53;;;5.12
34901;BMP280;21112;51.976;5.660;2024-02-26T02:51:09;98568.16;;;5.12
34901;BMP280;21112;51.976;5.660;2024-02-26T02:53:36;98557.44;;;5.10
34901;BMP280;21112;51.976;5.660;2024-02-26T02:56:06;98545.91;;;5.07
34901;BMP280;21112;51.976;5.660;2024-02-26T02:58:32;98549.31;;;5.05
34901;BMP280;21112;51.976;5.660;2024-02-26T03:00:59;98550.97;;;5.04
34901;BMP280;21112;51.976;5.660;2024-02-26T03:03:26;98541.09;;;5.03
34901;BMP280;21112;51.976;5.660;2024-02-26T03:05:54;98534.38;;;5.05
34901;BMP280;21112;51.976;5.660;2024-02-26T03:08:21;98545.97;;;5.06
34901;BMP280;21112;51.976;5.660;2024-02-26T03:10:49;98546.09;;;5.03
34901;BMP280;21112;51.976;5.660;2024-02-26T03:13:17;98538.59;;;5.03
34901;BMP280;21112;51.976;5.660;2024-02-26T03:15:44;98543.63;;;5.01
34901;BMP280;21112;51.976;5.660;2024-02-26T03:18:11;98543.59;;;5.03
34901;BMP280;21112;51.976;5.660;2024-02-26T03:20:38;98550.16;;;5.05
34901;BMP280;21112;51.976;5.660;2024-02-26T03:23:05;98552.50;;;5.08
34901;BMP280;21112;51.976;5.660;2024-02-26T03:25:31;98557.53;;;5.07
34901;BMP280;21112;51.976;5.660;2024-02-26T03:27:58;98555.16;;;5.04
34901;BMP280;21112;51.976;5.660;2024-02-26T03:30:26;98553.56;;;5.03
34901;BMP280;21112;51.976;5.660;2024-02-26T03:32:53;98550.19;;;5.04
34901;BMP280;21112;51.976;5.660;2024-02-26T03:35:20;98551.06;;;5.03
34901;BMP280;21112;51.976;5.660;2024-02-26T03:37:46;98560.91;;;5.06
34901;BMP280;21112;51.976;5.660;2024-02-26T03:40:15;98565.78;;;5.09
34901;BMP280;21112;51.976;5.660;2024-02-26T03:42:43;98599.41;;;5.20
34901;BMP280;21112;51.976;5.660;2024-02-26T03:45:10;98598.59;;;5.20
34901;BMP280;21112;51.976;5.660;2024-02-26T03:47:39;98616.81;;;5.22
34901;BMP280;21112;51.976;5.660;2024-02-26T03:50:06;98610.94;;;5.23
34901;BMP280;21112;51.976;5.660;2024-02-26T03:52:33;98615.94;;;5.23
34901;BMP280;21112;51.976;5.660;2024-02-26T03:55:00;98615.09;;;5.22
34901;BMP280;21112;51.976;5.660;2024-02-26T03:57:27;98616.84;;;5.20
34901;BMP280;21112;51.976;5.660;2024-02-26T03:59:54;98614.41;;;5.19
34901;BMP280;21112;51.976;5.660;2024-02-26T04:02:21;98621.13;;;5.17
34901;BMP280;21112;51.976;5.660;2024-02-26T04:04:50;98615.44;;;5.13
34901;BMP280;21112;51.976;5.660;2024-02-26T04:07:17;98609.75;;;5.10
34901;BMP280;21112;51.976;5.660;2024-02-26T04:09:44;98600.69;;;5.07
34901;BMP280;21112;51.976;5.660;2024-02-26T04:12:11;98583.34;;;5.04
34901;BMP280;21112;51.976;5.660;2024-02-26T04:14:37;98592.50;;;5.04
34901;BMP280;21112;51.976;5.660;2024-02-26T04:17:04;98594.13;;;5.05
34901;BMP280;21112;51.976;5.660;2024-02-26T04:19:31;98595.88;;;5.03
34901;BMP280;21112;51.976;5.660;2024-02-26T04:21:59;98582.72;;;4.99
34901;BMP280;21112;51.976;5.660;2024-02-26T04:24:26;98586.22;;;4.94
34901;BMP280;21112;51.976;5.660;2024-02-26T04:26:53;98578.91;;;4.89
34901;BMP280;21112;51.976;5.660;2024-02-26T04:29:19;98574.03;;;4.87
34901;BMP280;21112;51.976;5.660;2024-02-26T04:31:46;98576.69;;;4.82
34901;BMP280;21112;51.976;5.660;2024-02-26T04:34:13;98570.13;;;4.80
34901;BMP280;21112;51.976;5.660;2024-02-26T04:36:40;98567.69;;;4.78
34901;BMP280;21112;51.976;5.660;2024-02-26T04:39:11;98571.78;;;4.79
34901;BMP280;21112;51.976;5.660;2024-02-26T04:41:37;98567.63;;;4.80
34901;BMP280;21112;51.976;5.660;2024-02-26T04:44:04;98574.28;;;4.79
34901;BMP280;21112;51.976;5.660;2024-02-26T04:46:31;98561.88;;;4.78
34901;BMP280;21112;51.976;5.660;2024-02-26T04:48:58;98566.97;;;4.75
34901;BMP280;21112;51.976;5.660;2024-02-26T04:51:25;98561.16;;;4.74
34901;BMP280;21112;51.976;5.660;2024-02-26T04:53:52;98553.00;;;4.71
34901;BMP280;21112;51.976;5.660;2024-02-26T04:56:22;98560.38;;;4.74
34901;BMP280;21112;51.976;5.660;2024-02-26T04:58:48;98573.56;;;4.76
34901;BMP280;21112;51.976;5.660;2024-02-26T05:01:16;98570.28;;;4.75
34901;BMP280;21112;51.976;5.660;2024-02-26T05:03:43;98572.69;;;4.77
34901;BMP280;21112;51.976;5.660;2024-02-26T05:06:10;98573.59;;;4.74
34901;BMP280;21112;51.976;5.660;2024-02-26T05:08:37;98576.09;;;4.74
34901;BMP280;21112;51.976;5.660;2024-02-26T05:11:04;98568.72;;;4.73
34901;BMP280;21112;51.976;5.660;2024-02-26T05:13:32;98573.59;;;4.74
34901;BMP280;21112;51.976;5.660;2024-02-26T05:15:59;98573.59;;;4.74
34901;BMP280;21112;51.976;5.660;2024-02-26T05:18:28;98569.47;;;4.75
34901;BMP280;21112;51.976;5.660;2024-02-26T05:20:54;98567.00;;;4.73
34901;BMP280;21112;51.976;5.660;2024-02-26T05:23:21;98561.25;;;4.73
34901;BMP280;21112;51.976;5.660;2024-02-26T05:25:48;98542.25;;;4.70
34901;BMP280;21112;51.976;5.660;2024-02-26T05:28:15;98548.78;;;4.73
34901;BMP280;21112;51.976;5.660;2024-02-26T05:30:45;98538.84;;;4.73
34901;BMP280;21112;51.976;5.660;2024-02-26T05:33:12;98553.69;;;4.74
34901;BMP280;21112;51.976;5.660;2024-02-26T05:35:39;98550.50;;;4.71
34901;BMP280;21112;51.976;5.660;2024-02-26T05:38:06;98542.25;;;4.70
34901;BMP280;21112;51.976;5.660;2024-02-26T05:40:33;98543.91;;;4.70
34901;BMP280;21112;51.976;5.660;2024-02-26T05:43:00;98556.16;;;4.76
34901;BMP280;21112;51.976;5.660;2024-02-26T05:45:27;98557.84;;;4.75
34901;BMP280;21112;51.976;5.660;2024-02-26T05:47:55;98561.25;;;4.73
34901;BMP280;21112;51.976;5.660;2024-02-26T05:50:22;98556.25;;;4.73
34901;BMP280;21112;51.976;5.660;2024-02-26T05:52:49;98555.41;;;4.74
34901;BMP280;21112;51.976;5.660;2024-02-26T05:55:16;98559.53;;;4.73
34901;BMP280;21112;51.976;5.660;2024-02-26T05:57:43;98548.84;;;4.71
34901;BMP280;21112;51.976;5.660;2024-02-26T06:00:14;98544.81;;;4.67
34901;BMP280;21112;51.976;5.660;2024-02-26T06:02:40;98548.13;;;4.68
34901;BMP280;21112;51.976;5.660;2024-02-26T06:05:11;98544.78;;;4.69
34901;BMP280;21112;51.976;5.660;2024-02-26T06:07:38;98539.84;;;4.67
34901;BMP280;21112;51.976;5.660;2024-02-26T06:10:08;98549.75;;;4.69
34901;BMP280;21112;51.976;5.660;2024-02-26T06:12:36;98562.84;;;4.74
34901;BMP280;21112;51.976;5.660;2024-02-26T06:15:05;98556.16;;;4.76
34901;BMP280;21112;51.976;5.660;2024-02-26T06:17:32;98560.25;;;4.77
34901;BMP280;21112;51.976;5.660;2024-02-26T06:20:00;98570.91;;;4.80
34901;BMP280;21112;51.976;5.660;2024-02-26T06:22:39;98579.22;;;4.81
34901;BMP280;21112;51.976;5.660;2024-02-26T06:25:06;98589.13;;;4.82
34901;BMP280;21112;51.976;5.660;2024-02-26T06:27:34;98589.91;;;4.82
34901;BMP280;21112;51.976;5.660;2024-02-26T06:30:01;98593.25;;;4.83
34901;BMP280;21112;51.976;5.660;2024-02-26T06:32:28;98603.19;;;4.83
34901;BMP280;21112;51.976;5.660;2024-02-26T06:34:55;98586.56;;;4.83
34901;BMP280;21112;51.976;5.660;2024-02-26T06:37:22;98594.84;;;4.84
34901;BMP280;21112;51.976;5.660;2024-02-26T06:39:50;98598.06;;;4.88
34901;BMP280;21112;51.976;5.660;2024-02-26T06:42:20;98597.09;;;4.92
34901;BMP280;21112;51.976;5.660;2024-02-26T06:44:46;98612.09;;;4.90
34901;BMP280;21112;51.976;5.660;2024-02-26T06:47:13;98615.38;;;4.90
34901;BMP280;21112;51.976;5.660;2024-02-26T06:49:41;98622.03;;;4.90
34901;BMP280;21112;51.976;5.660;2024-02-26T06:52:09;98613.81;;;4.88
34901;BMP280;21112;51.976;5.660;2024-02-26T06:54:36;98615.47;;;4.88
34901;BMP280;21112;51.976;5.660;2024-02-26T06:57:04;98621.28;;;4.88
34901;BMP280;21112;51.976;5.660;2024-02-26T06:59:34;98623.69;;;4.89
34901;BMP280;21112;51.976;5.660;2024-02-26T07:02:03;98628.69;;;4.89
34901;BMP280;21112;51.976;5.660;2024-02-26T07:04:30;98635.34;;;4.89
34901;BMP280;21112;51.976;5.660;2024-02-26T07:06:59;98641.94;;;4.90
34901;BMP280;21112;51.976;5.660;2024-02-26T07:09:25;98642.81;;;4.89
34901;BMP280;21112;51.976;5.660;2024-02-26T07:11:54;98637.00;;;4.88
34901;BMP280;21112;51.976;5.660;2024-02-26T07:14:22;98636.25;;;4.87
34901;BMP280;21112;51.976;5.660;2024-02-26T07:16:50;98642.09;;;4.86
34901;BMP280;21112;51.976;5.660;2024-02-26T07:19:17;98640.47;;;4.84
34901;BMP280;21112;51.976;5.660;2024-02-26T07:21:47;98631.38;;;4.83
34901;BMP280;21112;51.976;5.660;2024-02-26T07:24:14;98632.22;;;4.82
34901;BMP280;21112;51.976;5.660;2024-02-26T07:26:41;98624.00;;;4.81
34901;BMP280;21112;51.976;5.660;2024-02-26T07:29:07;98622.31;;;4.81
34901;BMP280;21112;51.976;5.660;2024-02-26T07:31:38;98608.16;;;4.83
34901;BMP280;21112;51.976;5.660;2024-02-26T07:34:05;98604.81;;;4.84
34901;BMP280;21112;51.976;5.660;2024-02-26T07:36:32;98610.75;;;4.80
34901;BMP280;21112;51.976;5.660;2024-02-26T07:38:59;98603.22;;;4.82
34901;BMP280;21112;51.976;5.660;2024-02-26T07:41:28;98606.56;;;4.82
34901;BMP280;21112;51.976;5.660;2024-02-26T07:43:55;98584.19;;;4.81
34901;BMP280;21112;51.976;5.660;2024-02-26T07:46:23;98587.47;;;4.81
34901;BMP280;21112;51.976;5.660;2024-02-26T07:48:53;98578.34;;;4.82
34901;BMP280;21112;51.976;5.660;2024-02-26T07:51:20;98580.78;;;4.83
34901;BMP280;21112;51.976;5.660;2024-02-26T07:53:48;98573.31;;;4.83
34901;BMP280;21112;51.976;5.660;2024-02-26T07:56:18;98570.75;;;4.84
34901;BMP280;21112;51.976;5.660;2024-02-26T07:58:45;98564.25;;;4.82
34901;BMP280;21112;51.976;5.660;2024-02-26T08:01:13;98562.50;;;4.84
34901;BMP280;21112;51.976;5.660;2024-02-26T08:03:43;98559.97;;;4.86
34901;BMP280;21112;51.976;5.660;2024-02-26T08:06:13;98567.38;;;4.87
34901;BMP280;21112;51.976;5.660;2024-02-26T08:08:41;98559.84;;;4.88
34901;BMP280;21112;51.976;5.660;2024-02-26T08:11:14;98567.31;;;4.88
34901;BMP280;21112;51.976;5.660;2024-02-26T08:13:41;98554.06;;;4.88
34901;BMP280;21112;51.976;5.660;2024-02-26T08:16:08;98559.81;;;4.90
34901;BMP280;21112;51.976;5.660;2024-02-26T08:18:36;98566.41;;;4.91
34901;BMP280;21112;51.976;5.660;2024-02-26T08:21:03;98561.47;;;4.89
34901;BMP280;21112;51.976;5.660;2024-02-26T08:23:35;98563.97;;;4.89
34901;BMP280;21112;51.976;5.660;2024-02-26T08:26:02;98560.69;;;4.89
34901;BMP280;21112;51.976;5.660;2024-02-26T08:28:32;98551.50;;;4.89
34901;BMP280;21112;51.976;5.660;2024-02-26T08:30:59;98559.84;;;4.88
34901;BMP280;21112;51.976;5.660;2024-02-26T08:33:26;98555.63;;;4.90
34901;BMP280;21112;51.976;5.660;2024-02-26T08:35:53;98560.69;;;4.89
34901;BMP280;21112;51.976;5.660;2024-02-26T08:38:20;98564.78;;;4.90
34901;BMP280;21112;51.976;5.660;2024-02-26T08:40:50;98555.63;;;4.90
34901;BMP280;21112;51.976;5.660;2024-02-26T08:43:17;98556.34;;;4.94
34901;BMP280;21112;51.976;5.660;2024-02-26T08:45:44;98550.50;;;4.95
34901;BMP280;21112;51.976;5.660;2024-02-26T08:48:11;98548.81;;;4.95
34901;BMP280;21112;51.976;5.660;2024-02-26T08:50:38;98547.19;;;4.94
34901;BMP280;21112;51.976;5.660;2024-02-26T08:53:05;98541.31;;;4.97
34901;BMP280;21112;51.976;5.660;2024-02-26T08:55:33;98542.88;;;4.99
34901;BMP280;21112;51.976;5.660;2024-02-26T08:58:01;98541.19;;;5.00
34901;BMP280;21112;51.976;5.660;2024-02-26T09:00:28;98540.41;;;4.99
34901;BMP280;21112;51.976;5.660;2024-02-26T09:02:56;98535.22;;;5.05
34901;BMP280;21112;51.976;5.660;2024-02-26T09:05:23;98537.69;;;5.05
34901;BMP280;21112;51.976;5.660;2024-02-26T09:07:49;98540.97;;;5.06
34901;BMP280;21112;51.976;5.660;2024-02-26T09:10:17;98540.94;;;5.07
34901;BMP280;21112;51.976;5.660;2024-02-26T09:12:44;98537.38;;;5.14
34901;BMP280;21112;51.976;5.660;2024-02-26T09:15:14;98537.53;;;5.10
34901;BMP280;21112;51.976;5.660;2024-02-26T09:17:43;98540.78;;;5.12
34901;BMP280;21112;51.976;5.660;2024-02-26T09:20:11;98547.53;;;5.08
34901;BMP280;21112;51.976;5.660;2024-02-26T09:22:41;98554.78;;;5.14
34901;BMP280;21112;51.976;5.660;2024-02-26T09:25:08;98554.84;;;5.13
34901;BMP280;21112;51.976;5.660;2024-02-26T09:27:43;98557.25;;;5.16
34901;BMP280;21112;51.976;5.660;2024-02-26T09:30:11;98557.44;;;5.10
34901;BMP280;21112;51.976;5.660;2024-02-26T09:32:39;98562.44;;;5.10
34901;BMP280;21112;51.976;5.660;2024-02-26T09:35:09;98564.06;;;5.11
34901;BMP280;21112;51.976;5.660;2024-02-26T09:37:39;98567.41;;;5.10
34901;BMP280;21112;51.976;5.660;2024-02-26T09:40:08;98574.09;;;5.08
34901;BMP280;21112;51.976;5.660;2024-02-26T09:42:37;98575.84;;;5.06
34901;BMP280;21112;51.976;5.660;2024-02-26T09:45:10;98578.38;;;5.04
34901;BMP280;21112;51.976;5.660;2024-02-26T09:47:42;98574.09;;;5.08
34901;BMP280;21112;51.976;5.660;2024-02-26T09:50:09;98577.47;;;5.07
34901;BMP280;21112;51.976;5.660;2024-02-26T09:52:41;98577.31;;;5.11
34901;BMP280;21112;51.976;5.660;2024-02-26T09:55:09;98565.78;;;5.09
34901;BMP280;21112;51.976;5.660;2024-02-26T09:57:37;98579.88;;;5.10
34901;BMP280;21112;51.976;5.660;2024-02-26T10:00:08;98559.28;;;5.05
34901;BMP280;21112;51.976;5.660;2024-02-26T10:02:38;98559.28;;;5.05
34901;BMP280;21112;51.976;5.660;2024-02-26T10:05:07;98564.38;;;5.02
34901;BMP280;21112;51.976;5.660;2024-02-26T10:07:40;98560.91;;;5.06
34901;BMP280;21112;51.976;5.660;2024-02-26T10:10:09;98569.41;;;5.00
34901;BMP280;21112;51.976;5.660;2024-02-26T10:12:36;98575.97;;;5.03
34901;BMP280;21112;51.976;5.660;2024-02-26T10:15:07;98573.47;;;5.03
34901;BMP280;21112;51.976;5.660;2024-02-26T10:17:45;98571.78;;;5.03
34901;BMP280;21112;51.976;5.660;2024-02-26T10:20:30;98592.47;;;5.05
34901;BMP280;21112;51.976;5.660;2024-02-26T10:22:57;98595.66;;;5.09
34901;BMP280;21112;51.976;5.660;2024-02-26T10:25:24;98598.28;;;5.04
34901;BMP280;21112;51.976;5.660;2024-02-26T10:27:51;98603.13;;;5.09
34901;BMP280;21112;51.976;5.660;2024-02-26T10:30:21;98608.97;;;5.08
34901;BMP280;21112;51.976;5.660;2024-02-26T10:32:49;98603.06;;;5.10
34901;BMP280;21112;51.976;5.660;2024-02-26T10:35:21;98602.28;;;5.10
34901;BMP280;21112;51.976;5.660;2024-02-26T10:37:50;98605.44;;;5.15
34901;BMP280;21112;51.976;5.660;2024-02-26T10:40:18;98616.34;;;5.11
34901;BMP280;21112;51.976;5.660;2024-02-26T10:42:48;98627.84;;;5.15
34901;BMP280;21112;51.976;5.660;2024-02-26T10:45:15;98621.88;;;5.19
34901;BMP280;21112;51.976;5.660;2024-02-26T10:47:45;98622.00;;;5.16
34901;BMP280;21112;51.976;5.660;2024-02-26T10:50:13;98621.88;;;5.19
34901;BMP280;21112;51.976;5.660;2024-02-26T10:52:42;98629.28;;;5.20
34901;BMP280;21112;51.976;5.660;2024-02-26T10:55:18;98648.41;;;5.20
34901;BMP280;21112;51.976;5.660;2024-02-26T10:57:47;98643.31;;;5.23
34901;BMP280;21112;51.976;5.660;2024-02-26T11:00:16;98653.38;;;5.20
34901;BMP280;21112;51.976;5.660;2024-02-26T11:02:44;98656.50;;;5.26
34901;BMP280;21112;51.976;5.660;2024-02-26T11:05:11;98664.97;;;5.21
34901;BMP280;21112;51.976;5.660;2024-02-26T11:07:41;98673.97;;;5.25
34901;BMP280;21112;51.976;5.660;2024-02-26T11:10:11;98671.47;;;5.25
34901;BMP280;21112;51.976;5.660;2024-02-26T11:12:40;98664.84;;;5.25
34901;BMP280;21112;51.976;5.660;2024-02-26T11:15:09;98690.44;;;5.29
34901;BMP280;21112;51.976;5.660;2024-02-26T11:17:42;98695.44;;;5.29
34901;BMP280;21112;51.976;5.660;2024-02-26T11:20:11;98700.34;;;5.30
34901;BMP280;21112;51.976;5.660;2024-02-26T11:22:39;98707.81;;;5.30
34901;BMP280;21112;51.976;5.660;2024-02-26T11:25:09;98700.34;;;5.30
34901;BMP280;21112;51.976;5.660;2024-02-26T11:27:43;98706.16;;;5.31
34901;BMP280;21112;51.976;5.660;2024-02-26T11:30:13;98699.47;;;5.31
34901;BMP280;21112;51.976;5.660;2024-02-26T11:32:44;98699.53;;;5.30
34901;BMP280;21112;51.976;5.660;2024-02-26T11:35:13;98707.88;;;5.29
34901;BMP280;21112;51.976;5.660;2024-02-26T11:37:51;98710.50;;;5.24
34901;BMP280;21112;51.976;5.660;2024-02-26T11:40:19;98702.75;;;5.33
34901;BMP280;21112;51.976;5.660;2024-02-26T11:42:48;98714.50;;;5.30
34901;BMP280;21112;51.976;5.660;2024-02-26T11:45:49;98720.22;;;5.32
34901;BMP280;21112;51.976;5.660;2024-02-26T11:48:21;98712.75;;;5.32
34901;BMP280;21112;51.976;5.660;2024-02-26T11:50:49;98711.00;;;5.34
34901;BMP280;21112;51.976;5.660;2024-02-26T11:53:21;98706.03;;;5.34
34901;BMP280;21112;51.976;5.660;2024-02-26T11:55:48;98701.16;;;5.31
34901;BMP280;21112;51.976;5.660;2024-02-26T11:58:19;98702.78;;;5.32
34901;BMP280;21112;51.976;5.660;2024-02-26T12:00:46;98702.66;;;5.35
34901;BMP280;21112;51.976;5.660;2024-02-26T12:03:13;98705.13;;;5.36
34901;BMP280;21112;51.976;5.660;2024-02-26T12:05:41;98707.66;;;5.35
34901;BMP280;21112;51.976;5.660;2024-02-26T12:08:08;98700.25;;;5.33
34901;BMP280;21112;51.976;5.660;2024-02-26T12:10:36;98718.56;;;5.32
34901;BMP280;21112;51.976;5.660;2024-02-26T12:13:06;98724.25;;;5.36
34901;BMP280;21112;51.976;5.660;2024-02-26T12:15:37;98732.47;;;5.38
34901;BMP280;21112;51.976;5.660;2024-02-26T12:18:05;98725.88;;;5.37
34901;BMP280;21112;51.976;5.660;2024-02-26T12:20:33;98730.00;;;5.38
34901;BMP280;21112;51.976;5.660;2024-02-26T12:23:01;98749.06;;;5.39
34901;BMP280;21112;51.976;5.660;2024-02-26T12:25:32;98753.28;;;5.37
34901;BMP280;21112;51.976;5.660;2024-02-26T12:27:59;98754.78;;;5.41
34901;BMP280;21112;51.976;5.660;2024-02-26T12:30:34;98750.59;;;5.43
34901;BMP280;21112;51.976;5.660;2024-02-26T12:33:05;98759.72;;;5.42
34901;BMP280;21112;51.976;5.660;2024-02-26T12:35:35;98767.97;;;5.44
34901;BMP280;21112;51.976;5.660;2024-02-26T12:38:03;98765.44;;;5.46
34901;BMP280;21112;51.976;5.660;2024-02-26T12:40:31;98768.59;;;5.51
34901;BMP280;21112;51.976;5.660;2024-02-26T12:43:06;98777.72;;;5.50
34901;BMP280;21112;51.976;5.660;2024-02-26T12:45:42;98788.53;;;5.51
34901;BMP280;21112;51.976;5.660;2024-02-26T12:48:13;98786.06;;;5.49
34901;BMP280;21112;51.976;5.660;2024-02-26T12:50:40;98799.19;;;5.54
34901;BMP280;21112;51.976;5.660;2024-02-26T12:53:13;98804.06;;;5.57
34901;BMP280;21112;51.976;5.660;2024-02-26T12:55:42;98819.09;;;5.56
34901;BMP280;21112;51.976;5.660;2024-02-26T12:58:10;98816.53;;;5.57
34901;BMP280;21112;51.976;5.660;2024-02-26T13:00:38;98823.13;;;5.58
34901;BMP280;21112;51.976;5.660;2024-02-26T13:03:11;98823.78;;;5.65
34901;BMP280;21112;51.976;5.660;2024-02-26T13:05:45;98838.88;;;5.60
34901;BMP280;21112;51.976;5.660;2024-02-26T13:08:17;98836.22;;;5.65
34901;BMP280;21112;51.976;5.660;2024-02-26T13:10:45;98848.56;;;5.68
34901;BMP280;21112;51.976;5.660;2024-02-26T13:13:14;98849.41;;;5.68
34901;BMP280;21112;51.976;5.660;2024-02-26T13:15:41;98856.13;;;5.66
34901;BMP280;21112;51.976;5.660;2024-02-26T13:18:12;98869.31;;;5.70
34901;BMP280;21112;51.976;5.660;2024-02-26T13:20:40;98869.19;;;5.73
34901;BMP280;21112;51.976;5.660;2024-02-26T13:23:14;98868.28;;;5.75
34901;BMP280;21112;51.976;5.660;2024-02-26T13:25:41;98864.97;;;5.75
34901;BMP280;21112;51.976;5.660;2024-02-26T13:28:13;98876.66;;;5.73
34901;BMP280;21112;51.976;5.660;2024-02-26T13:30:41;98878.56;;;5.66
34901;BMP280;21112;51.976;5.660;2024-02-26T13:33:12;98880.06;;;5.70
34901;BMP280;21112;51.976;5.660;2024-02-26T13:35:39;98890.13;;;5.69
34901;BMP280;21112;51.976;5.660;2024-02-26T13:38:06;98890.00;;;5.72
34901;BMP280;21112;51.976;5.660;2024-02-26T13:40:37;98890.88;;;5.71
34901;BMP280;21112;51.976;5.660;2024-02-26T13:43:05;98912.47;;;5.70
34901;BMP280;21112;51.976;5.660;2024-02-26T13:45:36;98923.94;;;5.76
34901;BMP280;21112;51.976;5.660;2024-02-26T13:48:05;98920.50;;;5.80
34901;BMP280;21112;51.976;5.660;2024-02-26T13:50:32;98921.22;;;5.83
34901;BMP280;21112;51.976;5.660;2024-02-26T13:52:59;98925.47;;;5.81
34901;BMP280;21112;51.976;5.660;2024-02-26T13:55:26;98929.69;;;5.79
34901;BMP280;21112;51.976;5.660;2024-02-26T13:57:55;98947.78;;;5.84
34901;BMP280;21112;51.976;5.660;2024-02-26T14:00:22;98947.06;;;5.81
34901;BMP280;21112;51.976;5.660;2024-02-26T14:02:51;98951.84;;;5.87
34901;BMP280;21112;51.976;5.660;2024-02-26T14:05:20;98949.19;;;5.93
34901;BMP280;21112;51.976;5.660;2024-02-26T14:07:51;98960.94;;;5.89
34901;BMP280;21112;51.976;5.660;2024-02-26T14:10:21;98972.44;;;5.93
34901;BMP280;21112;51.976;5.660;2024-02-26T14:12:48;98970.94;;;5.88
34901;BMP280;21112;51.976;5.660;2024-02-26T14:15:16;98985.97;;;5.86
34901;BMP280;21112;51.976;5.660;2024-02-26T14:17:44;98984.94;;;5.92
34901;BMP280;21112;51.976;5.660;2024-02-26T14:20:13;98990.88;;;5.88
34901;BMP280;21112;51.976;5.660;2024-02-26T14:22:39;99001.66;;;5.90
34901;BMP280;21112;51.976;5.660;2024-02-26T14:25:07;99001.53;;;5.93
34901;BMP280;21112;51.976;5.660;2024-02-26T14:27:36;99013.06;;;5.97